• Join FlightAware (Why Join?)
  • Login
  • US Flag 
04:45AM EDT


 

Airport Tracker/Info


-or-


 

Live Flight TrackerFlight Track Log ✈ WWW586 ✈ 01-May-2013 ✈ KLAS - KTNX

Flight Track Log - Related Links

Times and Time Zones

All times are in EDT time to prevent confusion due to time zone crossing. See the WWW586 flight status page for this flight to view local times or setup timezone preferences in your user account.

Time Position Orientation Groundspeed Altitude Reporting Facility
EDT Latitude Longitude Course Direction KTS MPH feet Rate Location/Type
08:29AM 36.1039 -115.1564 323° Northwest 133 153 3,300  Level Los Angeles Center
08:31AM 36.1581 -115.2292 313° West 238 274 6,600 2,700 Climbing Los Angeles Center
08:32AM 36.1889 -115.3053 297° West 250 288 10,000 2,520 Climbing Los Angeles Center
08:33AM 36.2275 -115.3972 298° West 283 326 11,700 2,880 Climbing Los Angeles Center
08:34AM 36.2711 -115.4992 298° West 327 376 15,900 3,120 Climbing Los Angeles Center
08:35AM 36.5624 -115.5998 323° Northwest  Level Estimated
08:35AM 36.3250 -115.5969 304° West 332 382 18,000  Level Los Angeles Center
08:36AM 36.3794 -115.6919 305° West 368 423 20,000 960 Climbing Los Angeles Center
08:37AM 36.4414 -115.8017 305° West 383 441 20,000  Level Los Angeles Center
08:38AM 36.5128 -115.9289 305° West 388 447 20,000  Level Los Angeles Center
08:39AM 36.5719 -116.0367 304° West 392 451 20,000  Level Los Angeles Center
08:40AM 36.6092 -116.1647 290° West 392 451 20,000  Level Los Angeles Center
08:41AM 36.6444 -116.2914 289° West 390 449 20,000  Level Los Angeles Center
08:42AM 36.6803 -116.4189 289° West 388 447 20,000  Level Los Angeles Center
08:43AM 36.7358 -116.5333 301° West 388 447 20,000  Level Los Angeles Center
08:44AM 36.7961 -116.6461 304° West 389 448 20,000  Level Los Angeles Center
08:45AM 36.8811 -116.7283 322° Northwest 388 447 20,000  Level Los Angeles Center
08:46AM 36.9714 -116.8039 326° Northwest 391 450 20,000  Level Los Angeles Center
08:47AM 37.0617 -116.8789 326° Northwest 389 448 20,000 -900 Level Los Angeles Center
08:48AM 37.1500 -116.9525 326° Northwest 383 441 18,300 -1,860 Descending Los Angeles Center
08:49AM 37.2347 -117.0186 328° Northwest 365 420 16,300 -1,200 Descending Los Angeles Center
08:50AM 37.3186 -117.0856 328° Northwest 358 412 16,000 -120 Descending Los Angeles Center
08:51AM 37.3981 -117.1614 323° Northwest 357 411 16,100 -480 Climbing Los Angeles Center
08:52AM 37.4814 -117.1697 355° North 332 382 15,100 -1,860 Descending Los Angeles Center
08:53AM 37.5211 -117.0678 64° Northeast 323 372 12,400 -2,040 Descending Los Angeles Center
08:54AM 37.5558 -116.9683 66° East 317 365 11,100 -1,440 Descending Los Angeles Center
08:55AM 37.5972 -116.8939 55° Northeast 274 315 9,600 -1,380 Descending Los Angeles Center
08:56AM 37.6397 -116.8308 50° Northeast 247 284 8,400 -1,140 Descending Los Angeles Center
08:57AM 37.6994 -116.7839 32° Northeast 198 228 6,900 -780 Descending Los Angeles Center
08:58AM 37.7378 -116.7519 33° Northeast 164 189 6,600 -540 Descending Los Angeles Center
08:59AM 37.7694 -116.7661 341° North 137 158 5,900 -720 Descending Los Angeles Center